sensor_id;sensor_type;location;lat;lon;timestamp;P1;durP1;ratioP1;P2;durP2;ratioP2
59824;SDS011;45703;50.898;6.054;2024-02-21T00:01:45;16.17;;;6.97;;
59824;SDS011;45703;50.898;6.054;2024-02-21T00:04:10;17.38;;;6.45;;
59824;SDS011;45703;50.898;6.054;2024-02-21T00:06:35;17.10;;;7.28;;
59824;SDS011;45703;50.898;6.054;2024-02-21T00:09:01;23.00;;;7.85;;
59824;SDS011;45703;50.898;6.054;2024-02-21T00:11:26;15.85;;;6.50;;
59824;SDS011;45703;50.898;6.054;2024-02-21T00:13:53;15.00;;;7.53;;
59824;SDS011;45703;50.898;6.054;2024-02-21T00:16:18;17.42;;;7.22;;
59824;SDS011;45703;50.898;6.054;2024-02-21T00:18:44;15.32;;;7.32;;
59824;SDS011;45703;50.898;6.054;2024-02-21T00:21:10;16.05;;;6.40;;
59824;SDS011;45703;50.898;6.054;2024-02-21T00:23:43;17.65;;;7.22;;
59824;SDS011;45703;50.898;6.054;2024-02-21T00:26:10;14.50;;;6.85;;
59824;SDS011;45703;50.898;6.054;2024-02-21T00:28:36;18.23;;;8.00;;
59824;SDS011;45703;50.898;6.054;2024-02-21T00:31:02;17.63;;;6.90;;
59824;SDS011;45703;50.898;6.054;2024-02-21T00:33:27;19.83;;;7.07;;
59824;SDS011;45703;50.898;6.054;2024-02-21T00:35:53;16.33;;;6.95;;
59824;SDS011;45703;50.898;6.054;2024-02-21T00:38:18;16.45;;;7.18;;
59824;SDS011;45703;50.898;6.054;2024-02-21T00:40:43;17.92;;;7.30;;
59824;SDS011;45703;50.898;6.054;2024-02-21T00:43:09;16.15;;;6.88;;
59824;SDS011;45703;50.898;6.054;2024-02-21T00:45:34;16.15;;;7.20;;
59824;SDS011;45703;50.898;6.054;2024-02-21T00:47:59;16.73;;;7.40;;
59824;SDS011;45703;50.898;6.054;2024-02-21T00:50:25;19.70;;;7.95;;
59824;SDS011;45703;50.898;6.054;2024-02-21T00:52:50;15.27;;;6.10;;
59824;SDS011;45703;50.898;6.054;2024-02-21T00:55:15;20.27;;;7.50;;
59824;SDS011;45703;50.898;6.054;2024-02-21T00:57:41;18.75;;;6.95;;
59824;SDS011;45703;50.898;6.054;2024-02-21T01:00:06;15.65;;;7.35;;
59824;SDS011;45703;50.898;6.054;2024-02-21T01:02:33;16.52;;;7.40;;
59824;SDS011;45703;50.898;6.054;2024-02-21T01:04:58;14.82;;;6.95;;
59824;SDS011;45703;50.898;6.054;2024-02-21T01:07:23;16.52;;;7.25;;
59824;SDS011;45703;50.898;6.054;2024-02-21T01:09:49;19.88;;;7.13;;
59824;SDS011;45703;50.898;6.054;2024-02-21T01:12:16;19.15;;;7.00;;
59824;SDS011;45703;50.898;6.054;2024-02-21T01:14:41;18.98;;;7.53;;
59824;SDS011;45703;50.898;6.054;2024-02-21T01:17:07;17.30;;;7.10;;
59824;SDS011;45703;50.898;6.054;2024-02-21T01:19:32;17.55;;;6.85;;
59824;SDS011;45703;50.898;6.054;2024-02-21T01:21:57;20.60;;;8.13;;
59824;SDS011;45703;50.898;6.054;2024-02-21T01:24:23;13.35;;;7.03;;
59824;SDS011;45703;50.898;6.054;2024-02-21T01:26:49;17.48;;;7.15;;
59824;SDS011;45703;50.898;6.054;2024-02-21T01:29:14;14.70;;;7.00;;
59824;SDS011;45703;50.898;6.054;2024-02-21T01:31:40;19.17;;;7.57;;
59824;SDS011;45703;50.898;6.054;2024-02-21T01:34:05;16.65;;;7.38;;
59824;SDS011;45703;50.898;6.054;2024-02-21T01:36:31;17.73;;;6.95;;
59824;SDS011;45703;50.898;6.054;2024-02-21T01:38:56;13.95;;;7.05;;
59824;SDS011;45703;50.898;6.054;2024-02-21T01:41:21;14.35;;;6.90;;
59824;SDS011;45703;50.898;6.054;2024-02-21T01:43:47;15.13;;;6.32;;
59824;SDS011;45703;50.898;6.054;2024-02-21T01:46:12;14.93;;;6.68;;
59824;SDS011;45703;50.898;6.054;2024-02-21T01:48:37;18.73;;;7.93;;
59824;SDS011;45703;50.898;6.054;2024-02-21T01:51:03;14.68;;;6.93;;
59824;SDS011;45703;50.898;6.054;2024-02-21T01:53:30;18.60;;;6.93;;
59824;SDS011;45703;50.898;6.054;2024-02-21T01:55:59;15.23;;;6.25;;
59824;SDS011;45703;50.898;6.054;2024-02-21T01:58:24;15.10;;;6.95;;
59824;SDS011;45703;50.898;6.054;2024-02-21T02:00:50;17.38;;;7.00;;
59824;SDS011;45703;50.898;6.054;2024-02-21T02:03:15;15.88;;;6.57;;
59824;SDS011;45703;50.898;6.054;2024-02-21T02:05:47;14.73;;;7.03;;
59824;SDS011;45703;50.898;6.054;2024-02-21T02:08:14;13.82;;;6.20;;
59824;SDS011;45703;50.898;6.054;2024-02-21T02:10:42;14.55;;;6.03;;
59824;SDS011;45703;50.898;6.054;2024-02-21T02:13:08;17.38;;;7.50;;
59824;SDS011;45703;50.898;6.054;2024-02-21T02:18:06;14.38;;;6.65;;
59824;SDS011;45703;50.898;6.054;2024-02-21T02:20:32;17.73;;;6.70;;
59824;SDS011;45703;50.898;6.054;2024-02-21T02:22:59;14.23;;;6.15;;
59824;SDS011;45703;50.898;6.054;2024-02-21T02:25:26;17.88;;;6.78;;
59824;SDS011;45703;50.898;6.054;2024-02-21T02:27:51;14.05;;;5.95;;
59824;SDS011;45703;50.898;6.054;2024-02-21T02:30:17;18.10;;;6.90;;
59824;SDS011;45703;50.898;6.054;2024-02-21T02:32:45;15.15;;;6.43;;
59824;SDS011;45703;50.898;6.054;2024-02-21T02:35:13;13.48;;;6.38;;
59824;SDS011;45703;50.898;6.054;2024-02-21T02:37:39;14.75;;;5.80;;
59824;SDS011;45703;50.898;6.054;2024-02-21T02:40:05;19.27;;;7.05;;
59824;SDS011;45703;50.898;6.054;2024-02-21T02:42:33;13.07;;;6.25;;
59824;SDS011;45703;50.898;6.054;2024-02-21T02:44:58;19.38;;;6.47;;
59824;SDS011;45703;50.898;6.054;2024-02-21T02:47:24;14.10;;;6.60;;
59824;SDS011;45703;50.898;6.054;2024-02-21T02:49:49;22.60;;;7.70;;
59824;SDS011;45703;50.898;6.054;2024-02-21T02:52:16;16.95;;;6.05;;
59824;SDS011;45703;50.898;6.054;2024-02-21T02:54:42;13.43;;;6.25;;
59824;SDS011;45703;50.898;6.054;2024-02-21T02:57:08;13.70;;;6.32;;
59824;SDS011;45703;50.898;6.054;2024-02-21T02:59:34;16.33;;;6.85;;
59824;SDS011;45703;50.898;6.054;2024-02-21T03:01:59;14.52;;;6.00;;
59824;SDS011;45703;50.898;6.054;2024-02-21T03:04:24;14.60;;;5.82;;
59824;SDS011;45703;50.898;6.054;2024-02-21T03:06:50;16.15;;;7.35;;
59824;SDS011;45703;50.898;6.054;2024-02-21T03:09:15;17.05;;;6.13;;
59824;SDS011;45703;50.898;6.054;2024-02-21T03:11:42;13.68;;;5.95;;
59824;SDS011;45703;50.898;6.054;2024-02-21T03:14:09;17.60;;;6.07;;
59824;SDS011;45703;50.898;6.054;2024-02-21T03:16:35;15.25;;;6.68;;
59824;SDS011;45703;50.898;6.054;2024-02-21T03:19:00;15.82;;;6.72;;
59824;SDS011;45703;50.898;6.054;2024-02-21T03:21:25;16.05;;;6.13;;
59824;SDS011;45703;50.898;6.054;2024-02-21T03:23:51;13.52;;;6.15;;
59824;SDS011;45703;50.898;6.054;2024-02-21T03:26:16;16.20;;;7.25;;
59824;SDS011;45703;50.898;6.054;2024-02-21T03:28:42;13.65;;;5.88;;
59824;SDS011;45703;50.898;6.054;2024-02-21T03:31:13;15.30;;;6.80;;
59824;SDS011;45703;50.898;6.054;2024-02-21T03:33:39;16.35;;;6.47;;
59824;SDS011;45703;50.898;6.054;2024-02-21T03:36:12;14.38;;;6.75;;
59824;SDS011;45703;50.898;6.054;2024-02-21T03:38:38;12.88;;;5.10;;
59824;SDS011;45703;50.898;6.054;2024-02-21T03:41:03;16.50;;;6.10;;
59824;SDS011;45703;50.898;6.054;2024-02-21T03:43:29;12.90;;;5.43;;
59824;SDS011;45703;50.898;6.054;2024-02-21T03:45:54;17.08;;;6.22;;
59824;SDS011;45703;50.898;6.054;2024-02-21T03:48:19;16.88;;;6.97;;
59824;SDS011;45703;50.898;6.054;2024-02-21T03:50:45;13.07;;;5.90;;
59824;SDS011;45703;50.898;6.054;2024-02-21T03:53:11;16.73;;;5.55;;
59824;SDS011;45703;50.898;6.054;2024-02-21T03:55:36;17.60;;;6.80;;
59824;SDS011;45703;50.898;6.054;2024-02-21T03:58:01;12.95;;;5.55;;
59824;SDS011;45703;50.898;6.054;2024-02-21T04:00:27;17.55;;;6.82;;
59824;SDS011;45703;50.898;6.054;2024-02-21T04:02:52;12.75;;;5.55;;
59824;SDS011;45703;50.898;6.054;2024-02-21T04:05:17;16.02;;;5.78;;
59824;SDS011;45703;50.898;6.054;2024-02-21T04:07:43;13.65;;;6.60;;
59824;SDS011;45703;50.898;6.054;2024-02-21T04:10:08;15.80;;;5.93;;
59824;SDS011;45703;50.898;6.054;2024-02-21T04:12:34;16.27;;;6.38;;
59824;SDS011;45703;50.898;6.054;2024-02-21T04:14:59;15.27;;;6.40;;
59824;SDS011;45703;50.898;6.054;2024-02-21T04:17:24;11.95;;;5.55;;
59824;SDS011;45703;50.898;6.054;2024-02-21T04:19:50;13.48;;;5.95;;
59824;SDS011;45703;50.898;6.054;2024-02-21T04:22:15;19.27;;;7.20;;
59824;SDS011;45703;50.898;6.054;2024-02-21T04:24:40;14.65;;;5.80;;
59824;SDS011;45703;50.898;6.054;2024-02-21T04:27:06;13.55;;;5.43;;
59824;SDS011;45703;50.898;6.054;2024-02-21T04:29:31;12.23;;;5.68;;
59824;SDS011;45703;50.898;6.054;2024-02-21T04:31:57;13.45;;;5.28;;
59824;SDS011;45703;50.898;6.054;2024-02-21T04:34:22;13.23;;;5.35;;
59824;SDS011;45703;50.898;6.054;2024-02-21T04:36:48;12.70;;;5.57;;
59824;SDS011;45703;50.898;6.054;2024-02-21T04:39:13;16.95;;;6.15;;
59824;SDS011;45703;50.898;6.054;2024-02-21T04:41:39;14.05;;;5.35;;
59824;SDS011;45703;50.898;6.054;2024-02-21T04:44:04;18.35;;;6.40;;
59824;SDS011;45703;50.898;6.054;2024-02-21T04:46:29;14.60;;;5.95;;
59824;SDS011;45703;50.898;6.054;2024-02-21T04:48:55;16.45;;;5.88;;
59824;SDS011;45703;50.898;6.054;2024-02-21T04:51:21;15.63;;;5.70;;
59824;SDS011;45703;50.898;6.054;2024-02-21T04:53:46;14.15;;;5.88;;
59824;SDS011;45703;50.898;6.054;2024-02-21T04:56:12;13.73;;;5.18;;
59824;SDS011;45703;50.898;6.054;2024-02-21T04:58:38;16.00;;;5.97;;
59824;SDS011;45703;50.898;6.054;2024-02-21T05:01:04;13.02;;;4.95;;
59824;SDS011;45703;50.898;6.054;2024-02-21T05:03:29;15.63;;;5.32;;
59824;SDS011;45703;50.898;6.054;2024-02-21T05:05:55;13.10;;;5.38;;
59824;SDS011;45703;50.898;6.054;2024-02-21T05:08:20;17.30;;;5.30;;
59824;SDS011;45703;50.898;6.054;2024-02-21T05:10:45;14.68;;;5.25;;
59824;SDS011;45703;50.898;6.054;2024-02-21T05:13:11;12.85;;;5.18;;
59824;SDS011;45703;50.898;6.054;2024-02-21T05:15:36;14.43;;;5.68;;
59824;SDS011;45703;50.898;6.054;2024-02-21T05:18:02;11.82;;;5.65;;
59824;SDS011;45703;50.898;6.054;2024-02-21T05:20:27;11.38;;;4.53;;
59824;SDS011;45703;50.898;6.054;2024-02-21T05:22:52;13.45;;;5.30;;
59824;SDS011;45703;50.898;6.054;2024-02-21T05:25:18;12.55;;;5.22;;
59824;SDS011;45703;50.898;6.054;2024-02-21T05:27:43;11.23;;;4.47;;
59824;SDS011;45703;50.898;6.054;2024-02-21T05:30:09;10.10;;;4.38;;
59824;SDS011;45703;50.898;6.054;2024-02-21T05:32:35;13.90;;;4.80;;
59824;SDS011;45703;50.898;6.054;2024-02-21T05:35:00;12.38;;;4.40;;
59824;SDS011;45703;50.898;6.054;2024-02-21T05:37:26;13.40;;;4.97;;
59824;SDS011;45703;50.898;6.054;2024-02-21T05:39:51;10.85;;;4.90;;
59824;SDS011;45703;50.898;6.054;2024-02-21T05:42:16;12.48;;;4.47;;
59824;SDS011;45703;50.898;6.054;2024-02-21T05:44:42;13.80;;;4.90;;
59824;SDS011;45703;50.898;6.054;2024-02-21T05:47:07;12.25;;;5.30;;
59824;SDS011;45703;50.898;6.054;2024-02-21T05:49:35;11.40;;;4.75;;
59824;SDS011;45703;50.898;6.054;2024-02-21T05:52:01;9.98;;;4.63;;
59824;SDS011;45703;50.898;6.054;2024-02-21T05:54:26;15.75;;;5.00;;
59824;SDS011;45703;50.898;6.054;2024-02-21T05:56:51;11.27;;;4.15;;
59824;SDS011;45703;50.898;6.054;2024-02-21T05:59:18;13.05;;;5.25;;
59824;SDS011;45703;50.898;6.054;2024-02-21T06:01:43;11.35;;;4.53;;
59824;SDS011;45703;50.898;6.054;2024-02-21T06:04:09;11.93;;;4.57;;
59824;SDS011;45703;50.898;6.054;2024-02-21T06:06:34;13.13;;;4.75;;
59824;SDS011;45703;50.898;6.054;2024-02-21T06:09:00;13.48;;;5.10;;
59824;SDS011;45703;50.898;6.054;2024-02-21T06:11:27;13.32;;;4.50;;
59824;SDS011;45703;50.898;6.054;2024-02-21T06:13:52;11.45;;;4.97;;
59824;SDS011;45703;50.898;6.054;2024-02-21T06:16:18;15.27;;;4.90;;
59824;SDS011;45703;50.898;6.054;2024-02-21T06:18:43;14.25;;;5.32;;
59824;SDS011;45703;50.898;6.054;2024-02-21T06:21:08;12.70;;;4.50;;
59824;SDS011;45703;50.898;6.054;2024-02-21T06:23:36;13.73;;;4.53;;
59824;SDS011;45703;50.898;6.054;2024-02-21T06:26:02;12.57;;;4.95;;
59824;SDS011;45703;50.898;6.054;2024-02-21T06:28:27;15.15;;;5.90;;
59824;SDS011;45703;50.898;6.054;2024-02-21T06:30:52;17.65;;;4.57;;
59824;SDS011;45703;50.898;6.054;2024-02-21T06:33:18;13.60;;;5.35;;
59824;SDS011;45703;50.898;6.054;2024-02-21T06:35:47;12.40;;;4.07;;
59824;SDS011;45703;50.898;6.054;2024-02-21T06:38:13;14.15;;;5.00;;
59824;SDS011;45703;50.898;6.054;2024-02-21T06:40:38;12.65;;;4.07;;
59824;SDS011;45703;50.898;6.054;2024-02-21T06:43:05;14.15;;;4.57;;
59824;SDS011;45703;50.898;6.054;2024-02-21T06:45:30;13.20;;;3.95;;
59824;SDS011;45703;50.898;6.054;2024-02-21T06:47:56;12.80;;;4.35;;
59824;SDS011;45703;50.898;6.054;2024-02-21T06:50:21;10.35;;;4.10;;
59824;SDS011;45703;50.898;6.054;2024-02-21T06:52:47;11.80;;;4.25;;
59824;SDS011;45703;50.898;6.054;2024-02-21T06:55:12;12.30;;;3.83;;
59824;SDS011;45703;50.898;6.054;2024-02-21T06:57:37;12.32;;;4.00;;
59824;SDS011;45703;50.898;6.054;2024-02-21T07:00:03;10.48;;;4.30;;
59824;SDS011;45703;50.898;6.054;2024-02-21T07:02:33;11.18;;;3.88;;
59824;SDS011;45703;50.898;6.054;2024-02-21T07:04:58;11.32;;;4.00;;
59824;SDS011;45703;50.898;6.054;2024-02-21T07:07:24;10.93;;;4.57;;
59824;SDS011;45703;50.898;6.054;2024-02-21T07:09:49;11.73;;;4.28;;
59824;SDS011;45703;50.898;6.054;2024-02-21T07:12:14;14.88;;;5.18;;
59824;SDS011;45703;50.898;6.054;2024-02-21T07:14:40;12.75;;;5.10;;
59824;SDS011;45703;50.898;6.054;2024-02-21T07:17:05;13.50;;;4.45;;
59824;SDS011;45703;50.898;6.054;2024-02-21T07:19:30;15.68;;;4.80;;
59824;SDS011;45703;50.898;6.054;2024-02-21T07:21:56;13.07;;;4.88;;
59824;SDS011;45703;50.898;6.054;2024-02-21T07:24:22;14.13;;;5.68;;
59824;SDS011;45703;50.898;6.054;2024-02-21T07:26:47;13.90;;;5.78;;
59824;SDS011;45703;50.898;6.054;2024-02-21T07:29:13;11.10;;;4.75;;
59824;SDS011;45703;50.898;6.054;2024-02-21T07:31:41;15.10;;;5.90;;
59824;SDS011;45703;50.898;6.054;2024-02-21T07:34:07;12.05;;;5.30;;
59824;SDS011;45703;50.898;6.054;2024-02-21T07:36:33;12.65;;;4.95;;
59824;SDS011;45703;50.898;6.054;2024-02-21T07:38:58;13.68;;;5.85;;
59824;SDS011;45703;50.898;6.054;2024-02-21T07:41:24;11.13;;;4.93;;
59824;SDS011;45703;50.898;6.054;2024-02-21T07:43:50;13.68;;;5.05;;
59824;SDS011;45703;50.898;6.054;2024-02-21T07:46:15;10.65;;;4.45;;
59824;SDS011;45703;50.898;6.054;2024-02-21T07:48:40;15.18;;;4.75;;
59824;SDS011;45703;50.898;6.054;2024-02-21T07:51:06;14.13;;;4.65;;
59824;SDS011;45703;50.898;6.054;2024-02-21T07:53:31;13.20;;;4.60;;
59824;SDS011;45703;50.898;6.054;2024-02-21T07:55:59;12.45;;;4.53;;
59824;SDS011;45703;50.898;6.054;2024-02-21T07:58:25;11.73;;;4.82;;
59824;SDS011;45703;50.898;6.054;2024-02-21T08:00:50;13.68;;;4.95;;
59824;SDS011;45703;50.898;6.054;2024-02-21T08:03:15;10.68;;;4.60;;
59824;SDS011;45703;50.898;6.054;2024-02-21T08:05:42;11.57;;;4.65;;
59824;SDS011;45703;50.898;6.054;2024-02-21T08:08:08;10.73;;;4.43;;
59824;SDS011;45703;50.898;6.054;2024-02-21T08:10:33;13.05;;;4.70;;
59824;SDS011;45703;50.898;6.054;2024-02-21T08:12:59;9.65;;;4.25;;
59824;SDS011;45703;50.898;6.054;2024-02-21T08:15:24;13.45;;;4.90;;
59824;SDS011;45703;50.898;6.054;2024-02-21T08:17:53;11.32;;;4.70;;
59824;SDS011;45703;50.898;6.054;2024-02-21T08:20:23;12.32;;;4.70;;
59824;SDS011;45703;50.898;6.054;2024-02-21T08:22:49;11.35;;;4.63;;
59824;SDS011;45703;50.898;6.054;2024-02-21T08:25:14;17.13;;;5.25;;
59824;SDS011;45703;50.898;6.054;2024-02-21T08:27:40;11.05;;;4.22;;
59824;SDS011;45703;50.898;6.054;2024-02-21T08:30:05;13.90;;;4.32;;
59824;SDS011;45703;50.898;6.054;2024-02-21T08:32:32;10.45;;;3.70;;
59824;SDS011;45703;50.898;6.054;2024-02-21T08:34:59;10.57;;;3.90;;
59824;SDS011;45703;50.898;6.054;2024-02-21T08:37:24;8.73;;;3.72;;
59824;SDS011;45703;50.898;6.054;2024-02-21T08:39:52;9.98;;;4.05;;
59824;SDS011;45703;50.898;6.054;2024-02-21T08:42:17;12.88;;;4.20;;
59824;SDS011;45703;50.898;6.054;2024-02-21T08:44:44;10.27;;;3.65;;
59824;SDS011;45703;50.898;6.054;2024-02-21T08:47:09;9.68;;;3.53;;
59824;SDS011;45703;50.898;6.054;2024-02-21T08:49:35;10.30;;;4.05;;
59824;SDS011;45703;50.898;6.054;2024-02-21T08:52:01;10.45;;;3.55;;
59824;SDS011;45703;50.898;6.054;2024-02-21T08:54:27;11.65;;;3.80;;
59824;SDS011;45703;50.898;6.054;2024-02-21T08:56:53;9.65;;;3.25;;
59824;SDS011;45703;50.898;6.054;2024-02-21T08:59:19;9.45;;;3.40;;
59824;SDS011;45703;50.898;6.054;2024-02-21T09:01:45;13.50;;;4.00;;
59824;SDS011;45703;50.898;6.054;2024-02-21T09:04:11;13.57;;;3.53;;
59824;SDS011;45703;50.898;6.054;2024-02-21T09:06:36;9.07;;;3.15;;
59824;SDS011;45703;50.898;6.054;2024-02-21T09:09:04;9.20;;;3.40;;
59824;SDS011;45703;50.898;6.054;2024-02-21T09:11:29;9.00;;;3.40;;
59824;SDS011;45703;50.898;6.054;2024-02-21T09:13:55;11.45;;;3.70;;
59824;SDS011;45703;50.898;6.054;2024-02-21T09:16:21;12.63;;;3.53;;
59824;SDS011;45703;50.898;6.054;2024-02-21T09:18:47;9.30;;;3.22;;
59824;SDS011;45703;50.898;6.054;2024-02-21T09:21:13;9.02;;;3.38;;
59824;SDS011;45703;50.898;6.054;2024-02-21T09:23:38;13.02;;;3.90;;
59824;SDS011;45703;50.898;6.054;2024-02-21T09:26:03;13.73;;;3.58;;
59824;SDS011;45703;50.898;6.054;2024-02-21T09:28:29;9.80;;;3.70;;
59824;SDS011;45703;50.898;6.054;2024-02-21T09:30:55;9.73;;;3.20;;
59824;SDS011;45703;50.898;6.054;2024-02-21T09:33:20;8.88;;;3.10;;
59824;SDS011;45703;50.898;6.054;2024-02-21T09:35:45;10.35;;;4.20;;
59824;SDS011;45703;50.898;6.054;2024-02-21T09:38:12;9.98;;;3.60;;
59824;SDS011;45703;50.898;6.054;2024-02-21T09:40:38;9.85;;;3.15;;
59824;SDS011;45703;50.898;6.054;2024-02-21T09:43:04;9.93;;;3.15;;
59824;SDS011;45703;50.898;6.054;2024-02-21T09:45:33;9.07;;;3.38;;
59824;SDS011;45703;50.898;6.054;2024-02-21T09:50:41;8.88;;;3.70;;
59824;SDS011;45703;50.898;6.054;2024-02-21T09:53:08;9.15;;;3.60;;
59824;SDS011;45703;50.898;6.054;2024-02-21T09:55:36;9.15;;;3.22;;
59824;SDS011;45703;50.898;6.054;2024-02-21T09:58:05;12.43;;;3.47;;
59824;SDS011;45703;50.898;6.054;2024-02-21T10:00:30;10.35;;;3.80;;
59824;SDS011;45703;50.898;6.054;2024-02-21T10:02:56;9.75;;;3.70;;
59824;SDS011;45703;50.898;6.054;2024-02-21T10:05:21;12.15;;;3.60;;
59824;SDS011;45703;50.898;6.054;2024-02-21T10:07:47;7.82;;;3.30;;
59824;SDS011;45703;50.898;6.054;2024-02-21T10:10:13;9.23;;;3.25;;
59824;SDS011;45703;50.898;6.054;2024-02-21T10:12:48;8.07;;;3.58;;
59824;SDS011;45703;50.898;6.054;2024-02-21T10:15:22;9.88;;;3.33;;
59824;SDS011;45703;50.898;6.054;2024-02-21T10:17:58;10.52;;;4.03;;
59824;SDS011;45703;50.898;6.054;2024-02-21T10:20:25;9.25;;;3.92;;
59824;SDS011;45703;50.898;6.054;2024-02-21T10:23:01;9.98;;;3.80;;
59824;SDS011;45703;50.898;6.054;2024-02-21T10:25:36;11.00;;;4.03;;
59824;SDS011;45703;50.898;6.054;2024-02-21T10:28:12;10.07;;;3.80;;
59824;SDS011;45703;50.898;6.054;2024-02-21T10:30:37;8.45;;;3.63;;
59824;SDS011;45703;50.898;6.054;2024-02-21T10:33:03;9.07;;;3.70;;
59824;SDS011;45703;50.898;6.054;2024-02-21T10:35:31;10.52;;;4.10;;
59824;SDS011;45703;50.898;6.054;2024-02-21T10:37:58;11.65;;;3.83;;
59824;SDS011;45703;50.898;6.054;2024-02-21T10:40:27;12.05;;;3.92;;
59824;SDS011;45703;50.898;6.054;2024-02-21T10:42:57;9.77;;;4.25;;
59824;SDS011;45703;50.898;6.054;2024-02-21T10:45:27;11.85;;;4.35;;
59824;SDS011;45703;50.898;6.054;2024-02-21T10:48:10;9.95;;;3.90;;
59824;SDS011;45703;50.898;6.054;2024-02-21T10:56:33;10.25;;;4.00;;
59824;SDS011;45703;50.898;6.054;2024-02-21T10:59:06;11.27;;;3.78;;
59824;SDS011;45703;50.898;6.054;2024-02-21T11:01:32;12.13;;;3.97;;
59824;SDS011;45703;50.898;6.054;2024-02-21T11:04:10;10.23;;;3.67;;
59824;SDS011;45703;50.898;6.054;2024-02-21T11:06:37;11.27;;;3.95;;
59824;SDS011;45703;50.898;6.054;2024-02-21T11:09:05;11.80;;;4.10;;
59824;SDS011;45703;50.898;6.054;2024-02-21T11:11:35;10.73;;;3.67;;
59824;SDS011;45703;50.898;6.054;2024-02-21T11:16:41;9.45;;;3.60;;
59824;SDS011;45703;50.898;6.054;2024-02-21T11:21:45;10.07;;;4.38;;
59824;SDS011;45703;50.898;6.054;2024-02-21T11:24:10;12.30;;;4.13;;
59824;SDS011;45703;50.898;6.054;2024-02-21T11:26:39;9.15;;;3.35;;
59824;SDS011;45703;50.898;6.054;2024-02-21T11:29:07;10.65;;;3.95;;
59824;SDS011;45703;50.898;6.054;2024-02-21T11:31:41;11.95;;;4.10;;
59824;SDS011;45703;50.898;6.054;2024-02-21T11:34:10;11.15;;;3.72;;
59824;SDS011;45703;50.898;6.054;2024-02-21T11:36:46;11.10;;;3.50;;
59824;SDS011;45703;50.898;6.054;2024-02-21T11:39:23;11.13;;;4.38;;
59824;SDS011;45703;50.898;6.054;2024-02-21T11:44:32;8.98;;;3.00;;
59824;SDS011;45703;50.898;6.054;2024-02-21T11:46:59;9.27;;;3.20;;
59824;SDS011;45703;50.898;6.054;2024-02-21T11:49:25;8.65;;;3.55;;
59824;SDS011;45703;50.898;6.054;2024-02-21T11:52:01;9.32;;;3.55;;
59824;SDS011;45703;50.898;6.054;2024-02-21T11:54:29;11.05;;;3.60;;
59824;SDS011;45703;50.898;6.054;2024-02-21T11:56:54;9.13;;;3.70;;
59824;SDS011;45703;50.898;6.054;2024-02-21T11:59:20;8.48;;;3.38;;
59824;SDS011;45703;50.898;6.054;2024-02-21T12:01:46;10.65;;;3.63;;
59824;SDS011;45703;50.898;6.054;2024-02-21T12:04:11;8.80;;;3.35;;
59824;SDS011;45703;50.898;6.054;2024-02-21T12:06:38;9.10;;;3.75;;
59824;SDS011;45703;50.898;6.054;2024-02-21T12:09:05;9.60;;;3.58;;
59824;SDS011;45703;50.898;6.054;2024-02-21T12:11:34;9.70;;;4.15;;
59824;SDS011;45703;50.898;6.054;2024-02-21T12:14:00;11.70;;;4.00;;
59824;SDS011;45703;50.898;6.054;2024-02-21T12:16:29;10.20;;;3.50;;
59824;SDS011;45703;50.898;6.054;2024-02-21T12:18:56;10.07;;;3.70;;
59824;SDS011;45703;50.898;6.054;2024-02-21T12:21:31;9.88;;;3.60;;
59824;SDS011;45703;50.898;6.054;2024-02-21T12:23:59;9.52;;;3.60;;
59824;SDS011;45703;50.898;6.054;2024-02-21T12:26:25;11.45;;;3.72;;
59824;SDS011;45703;50.898;6.054;2024-02-21T12:28:52;7.63;;;3.47;;
59824;SDS011;45703;50.898;6.054;2024-02-21T12:31:18;9.40;;;3.55;;
59824;SDS011;45703;50.898;6.054;2024-02-21T12:33:43;11.48;;;4.10;;
59824;SDS011;45703;50.898;6.054;2024-02-21T12:36:09;8.43;;;3.40;;
59824;SDS011;45703;50.898;6.054;2024-02-21T12:38:35;9.98;;;3.97;;
59824;SDS011;45703;50.898;6.054;2024-02-21T12:41:01;8.95;;;4.00;;
59824;SDS011;45703;50.898;6.054;2024-02-21T12:43:26;9.95;;;3.65;;
59824;SDS011;45703;50.898;6.054;2024-02-21T12:45:52;8.48;;;3.50;;
59824;SDS011;45703;50.898;6.054;2024-02-21T12:48:17;11.52;;;3.60;;
59824;SDS011;45703;50.898;6.054;2024-02-21T12:50:49;8.68;;;3.10;;
59824;SDS011;45703;50.898;6.054;2024-02-21T12:53:21;6.97;;;3.13;;
59824;SDS011;45703;50.898;6.054;2024-02-21T12:55:48;9.90;;;3.60;;
59824;SDS011;45703;50.898;6.054;2024-02-21T12:58:13;8.52;;;3.35;;
59824;SDS011;45703;50.898;6.054;2024-02-21T13:00:39;10.93;;;3.45;;
59824;SDS011;45703;50.898;6.054;2024-02-21T13:03:05;9.38;;;3.22;;
59824;SDS011;45703;50.898;6.054;2024-02-21T13:05:30;9.63;;;3.10;;
59824;SDS011;45703;50.898;6.054;2024-02-21T13:07:57;7.82;;;2.88;;
59824;SDS011;45703;50.898;6.054;2024-02-21T13:10:23;10.30;;;2.85;;
59824;SDS011;45703;50.898;6.054;2024-02-21T13:12:49;7.90;;;2.85;;
59824;SDS011;45703;50.898;6.054;2024-02-21T13:15:14;9.02;;;2.92;;
59824;SDS011;45703;50.898;6.054;2024-02-21T13:17:41;8.10;;;3.10;;
59824;SDS011;45703;50.898;6.054;2024-02-21T13:20:06;8.88;;;3.10;;
59824;SDS011;45703;50.898;6.054;2024-02-21T13:22:33;8.75;;;2.90;;
59824;SDS011;45703;50.898;6.054;2024-02-21T13:24:59;10.02;;;3.55;;
59824;SDS011;45703;50.898;6.054;2024-02-21T13:27:25;8.80;;;3.78;;
59824;SDS011;45703;50.898;6.054;2024-02-21T13:29:50;9.23;;;3.35;;
59824;SDS011;45703;50.898;6.054;2024-02-21T13:32:16;9.95;;;3.55;;
59824;SDS011;45703;50.898;6.054;2024-02-21T13:34:41;8.52;;;3.30;;
59824;SDS011;45703;50.898;6.054;2024-02-21T13:37:07;10.40;;;3.70;;
59824;SDS011;45703;50.898;6.054;2024-02-21T13:39:34;8.13;;;2.95;;
59824;SDS011;45703;50.898;6.054;2024-02-21T13:42:00;8.13;;;2.72;;
59824;SDS011;45703;50.898;6.054;2024-02-21T13:44:26;6.90;;;2.53;;
59824;SDS011;45703;50.898;6.054;2024-02-21T13:46:51;8.50;;;3.05;;
59824;SDS011;45703;50.898;6.054;2024-02-21T13:49:16;8.30;;;2.75;;
59824;SDS011;45703;50.898;6.054;2024-02-21T13:51:42;7.63;;;2.53;;
59824;SDS011;45703;50.898;6.054;2024-02-21T13:54:09;8.40;;;2.63;;
59824;SDS011;45703;50.898;6.054;2024-02-21T13:56:36;8.57;;;2.83;;
59824;SDS011;45703;50.898;6.054;2024-02-21T13:59:02;7.32;;;2.63;;
59824;SDS011;45703;50.898;6.054;2024-02-21T14:01:27;10.00;;;2.90;;
59824;SDS011;45703;50.898;6.054;2024-02-21T14:03:53;11.00;;;3.28;;
59824;SDS011;45703;50.898;6.054;2024-02-21T14:06:19;8.98;;;2.88;;
59824;SDS011;45703;50.898;6.054;2024-02-21T14:08:44;8.77;;;2.65;;
59824;SDS011;45703;50.898;6.054;2024-02-21T14:11:10;6.95;;;2.30;;
59824;SDS011;45703;50.898;6.054;2024-02-21T14:13:35;7.25;;;2.78;;
59824;SDS011;45703;50.898;6.054;2024-02-21T14:16:01;10.80;;;3.25;;
59824;SDS011;45703;50.898;6.054;2024-02-21T14:18:26;8.55;;;2.58;;
59824;SDS011;45703;50.898;6.054;2024-02-21T14:20:52;7.68;;;3.00;;
59824;SDS011;45703;50.898;6.054;2024-02-21T14:23:18;7.57;;;2.53;;
59824;SDS011;45703;50.898;6.054;2024-02-21T14:25:43;7.28;;;2.42;;
59824;SDS011;45703;50.898;6.054;2024-02-21T14:28:09;8.00;;;2.72;;
59824;SDS011;45703;50.898;6.054;2024-02-21T14:30:34;8.70;;;2.70;;
59824;SDS011;45703;50.898;6.054;2024-02-21T14:33:01;9.85;;;2.92;;
59824;SDS011;45703;50.898;6.054;2024-02-21T14:35:26;6.43;;;2.50;;
59824;SDS011;45703;50.898;6.054;2024-02-21T14:37:52;8.27;;;3.00;;
59824;SDS011;45703;50.898;6.054;2024-02-21T14:40:18;9.27;;;2.72;;
59824;SDS011;45703;50.898;6.054;2024-02-21T14:42:44;9.18;;;2.70;;
59824;SDS011;45703;50.898;6.054;2024-02-21T14:45:10;7.47;;;2.97;;
59824;SDS011;45703;50.898;6.054;2024-02-21T14:47:35;8.20;;;2.63;;
59824;SDS011;45703;50.898;6.054;2024-02-21T14:50:02;7.15;;;2.55;;
59824;SDS011;45703;50.898;6.054;2024-02-21T14:52:29;6.97;;;2.10;;